Beaver Creek, Illinois
Current Conditions -  °F | °C
As of 9:15 AM on Thursday 30 Oct 2014 (Local Time) from K3LF Reporting Station
Broken Clouds Broken Clouds  
Wind Chill: 37°   Ceiling: 9000
Heat Index: 42°   Visibility: 10mi
Dew Point: 37°   Wind: 8mph
Humidity: 82%   Direction: 150°SSE
Pressure: 30.15"   Gusts: NA
Location:  38.895°N, 89.397°W
Report Text: K3LF 301415Z AUTO 15007KT 10SM BKN090 06/03 A3015 RMK AO2 T00550027
Loading
Personal Weather Stations






























Interactive Weather Map New forecast layout! Learn more

10-Day Weather Forecast

Advertisements
Track Severe Weather on mobile